sensor_id;sensor_type;location;lat;lon;timestamp;pressure;altitude;pressure_sealevel;temperature;humidity
42125;BME280;27787;44.594;11.046;2023-04-25T00:02:39;100152.06;;;15.01;73.78
42125;BME280;27787;44.594;11.046;2023-04-25T00:05:24;100149.41;;;15.01;74.61
42125;BME280;27787;44.594;11.046;2023-04-25T00:08:08;100143.31;;;14.96;74.66
42125;BME280;27787;44.594;11.046;2023-04-25T00:10:53;100144.22;;;14.95;75.19
42125;BME280;27787;44.594;11.046;2023-04-25T00:13:37;100143.31;;;14.96;74.74
42125;BME280;27787;44.594;11.046;2023-04-25T00:16:21;100145.88;;;15.01;75.10
42125;BME280;27787;44.594;11.046;2023-04-25T00:19:05;100146.75;;;15.01;75.02
42125;BME280;27787;44.594;11.046;2023-04-25T00:21:48;100142.44;;;14.96;75.06
42125;BME280;27787;44.594;11.046;2023-04-25T00:24:32;100142.50;;;14.93;75.81
42125;BME280;27787;44.594;11.046;2023-04-25T00:27:16;100140.69;;;14.95;75.84
42125;BME280;27787;44.594;11.046;2023-04-25T00:30:01;100139.78;;;14.96;75.83
42125;BME280;27787;44.594;11.046;2023-04-25T00:32:45;100133.72;;;14.89;76.25
42125;BME280;27787;44.594;11.046;2023-04-25T00:35:30;100136.56;;;14.80;76.72
42125;BME280;27787;44.594;11.046;2023-04-25T00:38:14;100139.34;;;14.74;77.74
42125;BME280;27787;44.594;11.046;2023-04-25T00:40:58;100133.13;;;14.75;77.80
42125;BME280;27787;44.594;11.046;2023-04-25T00:43:44;100136.69;;;14.74;77.77
42125;BME280;27787;44.594;11.046;2023-04-25T00:46:30;100133.16;;;14.73;77.90
42125;BME280;27787;44.594;11.046;2023-04-25T00:49:15;100140.28;;;14.70;77.35
42125;BME280;27787;44.594;11.046;2023-04-25T00:52:00;100136.09;;;14.60;77.79
42125;BME280;27787;44.594;11.046;2023-04-25T00:54:44;100132.59;;;14.56;78.43
42125;BME280;27787;44.594;11.046;2023-04-25T00:57:29;100142.47;;;14.50;78.61
42125;BME280;27787;44.594;11.046;2023-04-25T01:00:14;100138.19;;;14.39;78.56
42125;BME280;27787;44.594;11.046;2023-04-25T01:02:58;100141.16;;;14.23;79.49
42125;BME280;27787;44.594;11.046;2023-04-25T01:05:44;100137.84;;;14.10;79.94
42125;BME280;27787;44.594;11.046;2023-04-25T01:08:28;100139.63;;;14.09;80.42
42125;BME280;27787;44.594;11.046;2023-04-25T01:11:13;100137.00;;;14.08;80.57
42125;BME280;27787;44.594;11.046;2023-04-25T01:13:57;100141.53;;;14.00;80.55
42125;BME280;27787;44.594;11.046;2023-04-25T01:16:42;100140.75;;;13.93;81.12
42125;BME280;27787;44.594;11.046;2023-04-25T01:19:27;100142.72;;;13.82;81.04
42125;BME280;27787;44.594;11.046;2023-04-25T01:22:11;100141.13;;;13.70;81.96
42125;BME280;27787;44.594;11.046;2023-04-25T01:24:55;100142.16;;;13.60;82.76
42125;BME280;27787;44.594;11.046;2023-04-25T01:27:40;100139.44;;;13.65;82.79
42125;BME280;27787;44.594;11.046;2023-04-25T01:30:26;100125.22;;;13.70;82.72
42125;BME280;27787;44.594;11.046;2023-04-25T01:33:11;100135.63;;;13.84;82.22
42125;BME280;27787;44.594;11.046;2023-04-25T01:35:58;100133.88;;;13.83;81.74
42125;BME280;27787;44.594;11.046;2023-04-25T01:38:42;100141.03;;;13.76;81.24
42125;BME280;27787;44.594;11.046;2023-04-25T01:41:27;100135.06;;;13.62;81.30
42125;BME280;27787;44.594;11.046;2023-04-25T01:44:12;100139.69;;;13.48;82.06
42125;BME280;27787;44.594;11.046;2023-04-25T01:46:57;100138.94;;;13.41;83.22
42125;BME280;27787;44.594;11.046;2023-04-25T01:49:41;100144.28;;;13.35;83.34
42125;BME280;27787;44.594;11.046;2023-04-25T01:52:26;100142.63;;;13.30;83.46
42125;BME280;27787;44.594;11.046;2023-04-25T01:55:11;100135.59;;;13.25;84.13
42125;BME280;27787;44.594;11.046;2023-04-25T01:58:02;100141.78;;;13.24;83.97
42125;BME280;27787;44.594;11.046;2023-04-25T02:01:05;100146.22;;;13.22;83.43
42125;BME280;27787;44.594;11.046;2023-04-25T02:03:57;100141.75;;;13.27;83.56
42125;BME280;27787;44.594;11.046;2023-04-25T02:06:47;100145.25;;;13.31;83.13
42125;BME280;27787;44.594;11.046;2023-04-25T02:09:32;100147.88;;;13.33;83.19
42125;BME280;27787;44.594;11.046;2023-04-25T02:12:21;100146.13;;;13.32;82.95
42125;BME280;27787;44.594;11.046;2023-04-25T02:15:20;100147.94;;;13.26;82.52
42125;BME280;27787;44.594;11.046;2023-04-25T02:18:15;100144.53;;;13.18;83.23
42125;BME280;27787;44.594;11.046;2023-04-25T02:21:02;100140.13;;;13.14;83.45
42125;BME280;27787;44.594;11.046;2023-04-25T02:23:46;100132.22;;;13.10;84.01
42125;BME280;27787;44.594;11.046;2023-04-25T02:26:32;100130.59;;;13.03;84.84
42125;BME280;27787;44.594;11.046;2023-04-25T02:29:17;100123.53;;;13.00;85.11
42125;BME280;27787;44.594;11.046;2023-04-25T02:32:01;100119.19;;;12.94;85.53
42125;BME280;27787;44.594;11.046;2023-04-25T02:34:46;100120.09;;;12.93;85.85
42125;BME280;27787;44.594;11.046;2023-04-25T02:37:30;100131.63;;;12.89;85.44
42125;BME280;27787;44.594;11.046;2023-04-25T02:40:14;100132.50;;;12.87;85.47
42125;BME280;27787;44.594;11.046;2023-04-25T02:42:59;100124.56;;;12.87;85.68
42125;BME280;27787;44.594;11.046;2023-04-25T02:45:44;100127.25;;;12.84;85.09
42125;BME280;27787;44.594;11.046;2023-04-25T02:48:29;100123.75;;;12.82;85.55
42125;BME280;27787;44.594;11.046;2023-04-25T02:51:14;100132.50;;;12.87;85.23
42125;BME280;27787;44.594;11.046;2023-04-25T02:54:00;100133.38;;;12.89;84.59
42125;BME280;27787;44.594;11.046;2023-04-25T02:56:44;100138.81;;;12.78;84.40
42125;BME280;27787;44.594;11.046;2023-04-25T02:59:34;100136.34;;;12.61;85.58
42125;BME280;27787;44.594;11.046;2023-04-25T03:02:18;100131.09;;;12.57;86.06
42125;BME280;27787;44.594;11.046;2023-04-25T03:05:03;100124.97;;;12.53;86.74
42125;BME280;27787;44.594;11.046;2023-04-25T03:07:47;100124.97;;;12.55;85.88
42125;BME280;27787;44.594;11.046;2023-04-25T03:10:34;100121.41;;;12.57;85.48
42125;BME280;27787;44.594;11.046;2023-04-25T03:13:22;100120.59;;;12.52;84.97
42125;BME280;27787;44.594;11.046;2023-04-25T03:16:06;100116.31;;;12.37;85.44
42125;BME280;27787;44.594;11.046;2023-04-25T03:18:50;100117.34;;;12.21;85.92
42125;BME280;27787;44.594;11.046;2023-04-25T03:21:35;100114.69;;;12.23;86.62
42125;BME280;27787;44.594;11.046;2023-04-25T03:24:20;100120.03;;;12.18;86.28
42125;BME280;27787;44.594;11.046;2023-04-25T03:27:04;100111.28;;;12.12;86.61
42125;BME280;27787;44.594;11.046;2023-04-25T03:29:48;100115.78;;;12.03;86.50
42125;BME280;27787;44.594;11.046;2023-04-25T03:32:34;100110.63;;;11.88;87.60
42125;BME280;27787;44.594;11.046;2023-04-25T03:35:18;100098.31;;;11.81;88.77
42125;BME280;27787;44.594;11.046;2023-04-25T03:38:03;100101.81;;;11.86;88.76
42125;BME280;27787;44.594;11.046;2023-04-25T03:40:53;100100.06;;;11.84;88.31
42125;BME280;27787;44.594;11.046;2023-04-25T03:43:42;100098.31;;;11.78;88.58
42125;BME280;27787;44.594;11.046;2023-04-25T03:46:29;100096.69;;;11.62;89.89
42125;BME280;27787;44.594;11.046;2023-04-25T03:49:13;100092.31;;;11.61;90.36
42125;BME280;27787;44.594;11.046;2023-04-25T03:52:18;100098.41;;;11.66;90.14
42125;BME280;27787;44.594;11.046;2023-04-25T03:55:03;100101.03;;;11.72;89.94
42125;BME280;27787;44.594;11.046;2023-04-25T03:57:48;100105.47;;;11.67;89.19
42125;BME280;27787;44.594;11.046;2023-04-25T04:00:34;100108.06;;;11.70;89.51
42125;BME280;27787;44.594;11.046;2023-04-25T04:03:19;100108.06;;;11.74;88.76
42125;BME280;27787;44.594;11.046;2023-04-25T04:06:05;100098.38;;;11.73;88.88
42125;BME280;27787;44.594;11.046;2023-04-25T04:08:53;100103.66;;;11.73;89.16
42125;BME280;27787;44.594;11.046;2023-04-25T04:11:38;100097.53;;;11.67;88.71
42125;BME280;27787;44.594;11.046;2023-04-25T04:14:23;100105.44;;;11.70;89.00
42125;BME280;27787;44.594;11.046;2023-04-25T04:17:08;100094.91;;;11.65;88.46
42125;BME280;27787;44.594;11.046;2023-04-25T04:19:53;100085.31;;;11.52;88.57
42125;BME280;27787;44.594;11.046;2023-04-25T04:22:38;100095.03;;;11.48;89.33
42125;BME280;27787;44.594;11.046;2023-04-25T04:25:27;100095.00;;;11.53;89.57
42125;BME280;27787;44.594;11.046;2023-04-25T04:28:25;100109.00;;;11.66;89.39
42125;BME280;27787;44.594;11.046;2023-04-25T04:31:27;100103.59;;;11.78;88.53
42125;BME280;27787;44.594;11.046;2023-04-25T04:34:11;100106.25;;;11.81;87.76
42125;BME280;27787;44.594;11.046;2023-04-25T04:36:57;100113.28;;;11.84;87.40
42125;BME280;27787;44.594;11.046;2023-04-25T04:39:41;100118.59;;;11.82;87.37
42125;BME280;27787;44.594;11.046;2023-04-25T04:42:48;100122.94;;;11.91;87.36
42125;BME280;27787;44.594;11.046;2023-04-25T04:45:51;100121.16;;;11.93;86.44
42125;BME280;27787;44.594;11.046;2023-04-25T04:48:41;100124.63;;;11.99;86.72
42125;BME280;27787;44.594;11.046;2023-04-25T04:51:41;100123.66;;;12.06;86.25
42125;BME280;27787;44.594;11.046;2023-04-25T04:54:48;100141.31;;;12.04;85.64
42125;BME280;27787;44.594;11.046;2023-04-25T04:57:58;100136.22;;;11.86;87.10
42125;BME280;27787;44.594;11.046;2023-04-25T05:01:03;100152.97;;;11.77;88.90
42125;BME280;27787;44.594;11.046;2023-04-25T05:03:51;100146.88;;;11.66;89.84
42125;BME280;27787;44.594;11.046;2023-04-25T05:06:54;100151.31;;;11.63;90.66
42125;BME280;27787;44.594;11.046;2023-04-25T05:09:57;100145.16;;;11.58;90.52
42125;BME280;27787;44.594;11.046;2023-04-25T05:13:00;100149.66;;;11.45;90.96
42125;BME280;27787;44.594;11.046;2023-04-25T05:16:03;100154.13;;;11.37;91.24
42125;BME280;27787;44.594;11.046;2023-04-25T05:19:06;100148.00;;;11.33;91.96
42125;BME280;27787;44.594;11.046;2023-04-25T05:22:10;100148.84;;;11.35;92.63
42125;BME280;27787;44.594;11.046;2023-04-25T05:25:17;100150.59;;;11.39;93.63
42125;BME280;27787;44.594;11.046;2023-04-25T05:28:14;100151.38;;;11.53;93.31
42125;BME280;27787;44.594;11.046;2023-04-25T05:31:09;100154.78;;;11.74;92.22
42125;BME280;27787;44.594;11.046;2023-04-25T05:34:02;100151.22;;;11.79;92.07
42125;BME280;27787;44.594;11.046;2023-04-25T05:36:58;100154.72;;;11.83;91.78
42125;BME280;27787;44.594;11.046;2023-04-25T05:39:43;100155.63;;;11.77;91.64
42125;BME280;27787;44.594;11.046;2023-04-25T05:42:44;100151.25;;;11.72;93.01
42125;BME280;27787;44.594;11.046;2023-04-25T05:45:56;100168.00;;;11.72;93.37
42125;BME280;27787;44.594;11.046;2023-04-25T05:48:59;100175.06;;;11.73;93.83
42125;BME280;27787;44.594;11.046;2023-04-25T05:52:09;100175.91;;;11.77;93.50
42125;BME280;27787;44.594;11.046;2023-04-25T05:55:12;100188.25;;;11.75;93.45
42125;BME280;27787;44.594;11.046;2023-04-25T05:57:57;100183.88;;;11.72;93.27
42125;BME280;27787;44.594;11.046;2023-04-25T06:00:41;100186.50;;;11.71;92.99
42125;BME280;27787;44.594;11.046;2023-04-25T06:03:25;100188.31;;;11.64;94.16
42125;BME280;27787;44.594;11.046;2023-04-25T06:06:11;100190.94;;;11.67;94.34
42125;BME280;27787;44.594;11.046;2023-04-25T06:08:55;100197.06;;;11.74;93.80
42125;BME280;27787;44.594;11.046;2023-04-25T06:11:40;100195.25;;;11.88;93.39
42125;BME280;27787;44.594;11.046;2023-04-25T06:14:24;100187.31;;;11.88;93.14
42125;BME280;27787;44.594;11.046;2023-04-25T06:17:09;100205.84;;;11.87;93.10
42125;BME280;27787;44.594;11.046;2023-04-25T06:19:53;100196.16;;;11.82;93.72
42125;BME280;27787;44.594;11.046;2023-04-25T06:22:37;100205.84;;;11.84;93.45
42125;BME280;27787;44.594;11.046;2023-04-25T06:25:22;100203.19;;;11.84;93.32
42125;BME280;27787;44.594;11.046;2023-04-25T06:28:06;100208.50;;;11.87;93.91
42125;BME280;27787;44.594;11.046;2023-04-25T06:30:51;100208.44;;;11.91;93.16
42125;BME280;27787;44.594;11.046;2023-04-25T06:33:37;100206.63;;;12.01;93.18
42125;BME280;27787;44.594;11.046;2023-04-25T06:36:21;100217.13;;;12.08;92.80
42125;BME280;27787;44.594;11.046;2023-04-25T06:39:12;100233.88;;;12.07;92.97
42125;BME280;27787;44.594;11.046;2023-04-25T06:41:57;100223.38;;;12.01;93.93
42125;BME280;27787;44.594;11.046;2023-04-25T06:45:00;100226.84;;;12.05;94.64
42125;BME280;27787;44.594;11.046;2023-04-25T06:47:48;100230.38;;;12.07;95.37
42125;BME280;27787;44.594;11.046;2023-04-25T06:50:33;100230.31;;;12.16;95.61
42125;BME280;27787;44.594;11.046;2023-04-25T06:53:18;100236.44;;;12.20;95.53
42125;BME280;27787;44.594;11.046;2023-04-25T06:56:06;100234.66;;;12.25;95.86
42125;BME280;27787;44.594;11.046;2023-04-25T06:59:04;100243.44;;;12.30;96.31
42125;BME280;27787;44.594;11.046;2023-04-25T07:01:51;100256.59;;;12.39;95.89
42125;BME280;27787;44.594;11.046;2023-04-25T07:04:39;100244.25;;;12.38;95.03
42125;BME280;27787;44.594;11.046;2023-04-25T07:07:23;100247.75;;;12.40;94.19
42125;BME280;27787;44.594;11.046;2023-04-25T07:10:14;100248.63;;;12.40;94.93
42125;BME280;27787;44.594;11.046;2023-04-25T07:12:59;100252.13;;;12.44;95.61
42125;BME280;27787;44.594;11.046;2023-04-25T07:15:43;100266.22;;;12.51;94.84
42125;BME280;27787;44.594;11.046;2023-04-25T07:18:29;100263.56;;;12.51;94.38
42125;BME280;27787;44.594;11.046;2023-04-25T07:21:13;100260.00;;;12.53;94.83
42125;BME280;27787;44.594;11.046;2023-04-25T07:23:59;100261.78;;;12.48;94.95
42125;BME280;27787;44.594;11.046;2023-04-25T07:26:49;100263.53;;;12.52;95.25
42125;BME280;27787;44.594;11.046;2023-04-25T07:29:45;100265.25;;;12.56;95.27
42125;BME280;27787;44.594;11.046;2023-04-25T07:32:29;100262.53;;;12.67;94.88
42125;BME280;27787;44.594;11.046;2023-04-25T07:35:14;100266.81;;;12.80;94.28
42125;BME280;27787;44.594;11.046;2023-04-25T07:37:59;100267.56;;;12.93;94.28
42125;BME280;27787;44.594;11.046;2023-04-25T07:40:42;100271.00;;;12.99;94.26
42125;BME280;27787;44.594;11.046;2023-04-25T07:43:29;100277.09;;;13.11;94.23
42125;BME280;27787;44.594;11.046;2023-04-25T07:46:16;100284.09;;;13.19;93.84
42125;BME280;27787;44.594;11.046;2023-04-25T07:49:00;100282.28;;;13.23;93.82
42125;BME280;27787;44.594;11.046;2023-04-25T07:51:45;100294.59;;;13.30;94.41
42125;BME280;27787;44.594;11.046;2023-04-25T07:54:32;100290.09;;;13.35;94.34
42125;BME280;27787;44.594;11.046;2023-04-25T07:57:22;100300.75;;;13.32;94.77
42125;BME280;27787;44.594;11.046;2023-04-25T08:00:09;100308.75;;;13.29;95.45
42125;BME280;27787;44.594;11.046;2023-04-25T08:02:57;100312.25;;;13.30;96.39
42125;BME280;27787;44.594;11.046;2023-04-25T08:05:42;100322.09;;;13.15;94.28
42125;BME280;27787;44.594;11.046;2023-04-25T08:08:27;100321.34;;;13.01;95.00
42125;BME280;27787;44.594;11.046;2023-04-25T08:11:11;100318.75;;;12.95;92.33
42125;BME280;27787;44.594;11.046;2023-04-25T08:13:59;100311.66;;;12.98;92.09
42125;BME280;27787;44.594;11.046;2023-04-25T08:16:44;100325.63;;;13.16;87.83
42125;BME280;27787;44.594;11.046;2023-04-25T08:19:29;100334.41;;;13.24;86.90
42125;BME280;27787;44.594;11.046;2023-04-25T08:22:15;100336.91;;;13.38;85.41
42125;BME280;27787;44.594;11.046;2023-04-25T08:25:09;100333.16;;;13.54;84.91
42125;BME280;27787;44.594;11.046;2023-04-25T08:27:52;100339.97;;;13.76;83.98
42125;BME280;27787;44.594;11.046;2023-04-25T08:30:39;100340.66;;;13.92;82.01
42125;BME280;27787;44.594;11.046;2023-04-25T08:33:26;100343.22;;;14.00;81.47
42125;BME280;27787;44.594;11.046;2023-04-25T08:36:34;100343.19;;;14.03;81.05
42125;BME280;27787;44.594;11.046;2023-04-25T08:39:19;100347.56;;;14.05;81.58
42125;BME280;27787;44.594;11.046;2023-04-25T08:42:26;100361.72;;;14.06;82.06
42125;BME280;27787;44.594;11.046;2023-04-25T08:45:11;100364.31;;;14.10;82.49
42125;BME280;27787;44.594;11.046;2023-04-25T08:47:59;100359.88;;;14.11;81.36
42125;BME280;27787;44.594;11.046;2023-04-25T08:50:52;100361.63;;;14.12;80.93
42125;BME280;27787;44.594;11.046;2023-04-25T08:53:38;100365.22;;;14.09;79.99
42125;BME280;27787;44.594;11.046;2023-04-25T08:56:26;100359.03;;;14.09;80.87
42125;BME280;27787;44.594;11.046;2023-04-25T08:59:12;100359.75;;;14.18;80.56
42125;BME280;27787;44.594;11.046;2023-04-25T09:01:57;100358.81;;;14.24;79.50
42125;BME280;27787;44.594;11.046;2023-04-25T09:04:43;100362.28;;;14.28;78.12
42125;BME280;27787;44.594;11.046;2023-04-25T09:07:28;100370.16;;;14.35;77.41
42125;BME280;27787;44.594;11.046;2023-04-25T09:10:13;100374.50;;;14.45;76.95
42125;BME280;27787;44.594;11.046;2023-04-25T09:13:13;100376.06;;;14.56;75.74
42125;BME280;27787;44.594;11.046;2023-04-25T09:16:17;100373.19;;;14.71;73.65
42125;BME280;27787;44.594;11.046;2023-04-25T09:19:29;100384.53;;;14.82;71.86
42125;BME280;27787;44.594;11.046;2023-04-25T09:22:15;100382.63;;;14.90;71.26
42125;BME280;27787;44.594;11.046;2023-04-25T09:25:10;100380.69;;;15.00;70.41
42125;BME280;27787;44.594;11.046;2023-04-25T09:27:54;100385.00;;;15.07;69.98
42125;BME280;27787;44.594;11.046;2023-04-25T09:30:46;100376.03;;;15.14;69.55
42125;BME280;27787;44.594;11.046;2023-04-25T09:33:37;100387.44;;;15.19;68.98
42125;BME280;27787;44.594;11.046;2023-04-25T09:36:26;100391.78;;;15.25;68.31
42125;BME280;27787;44.594;11.046;2023-04-25T09:39:19;100394.31;;;15.31;67.39
42125;BME280;27787;44.594;11.046;2023-04-25T09:42:14;100391.56;;;15.37;66.90
42125;BME280;27787;44.594;11.046;2023-04-25T09:45:00;100403.06;;;15.39;66.73
42125;BME280;27787;44.594;11.046;2023-04-25T09:47:49;100407.53;;;15.35;64.91
42125;BME280;27787;44.594;11.046;2023-04-25T09:50:39;100414.63;;;15.37;64.05
42125;BME280;27787;44.594;11.046;2023-04-25T09:53:28;100406.63;;;15.38;63.85
42125;BME280;27787;44.594;11.046;2023-04-25T09:56:35;100404.78;;;15.42;63.95
42125;BME280;27787;44.594;11.046;2023-04-25T09:59:23;100405.53;;;15.48;63.48
42125;BME280;27787;44.594;11.046;2023-04-25T10:02:08;100398.31;;;15.55;63.86
42125;BME280;27787;44.594;11.046;2023-04-25T10:04:56;100396.44;;;15.63;63.86
42125;BME280;27787;44.594;11.046;2023-04-25T10:07:44;100396.31;;;15.69;63.73
42125;BME280;27787;44.594;11.046;2023-04-25T10:10:33;100402.34;;;15.79;63.39
42125;BME280;27787;44.594;11.046;2023-04-25T10:13:19;100397.72;;;15.87;62.98
42125;BME280;27787;44.594;11.046;2023-04-25T10:16:05;100398.31;;;16.03;62.50
42125;BME280;27787;44.594;11.046;2023-04-25T10:18:49;100391.78;;;16.17;62.04
42125;BME280;27787;44.594;11.046;2023-04-25T10:21:39;100392.47;;;16.26;60.76
42125;BME280;27787;44.594;11.046;2023-04-25T10:24:29;100374.50;;;16.35;59.94
42125;BME280;27787;44.594;11.046;2023-04-25T10:27:13;100382.22;;;16.47;59.60
42125;BME280;27787;44.594;11.046;2023-04-25T10:30:02;100376.56;;;16.61;59.11
42125;BME280;27787;44.594;11.046;2023-04-25T10:32:48;100373.56;;;16.76;59.13
42125;BME280;27787;44.594;11.046;2023-04-25T10:35:34;100365.47;;;16.81;58.42
42125;BME280;27787;44.594;11.046;2023-04-25T10:38:19;100367.22;;;16.82;58.36
42125;BME280;27787;44.594;11.046;2023-04-25T10:41:07;100360.06;;;16.84;58.39
42125;BME280;27787;44.594;11.046;2023-04-25T10:43:59;100361.06;;;16.80;58.42
42125;BME280;27787;44.594;11.046;2023-04-25T10:46:45;100361.16;;;16.75;58.44
42125;BME280;27787;44.594;11.046;2023-04-25T10:52:27;100356.31;;;16.54;57.81
42125;BME280;27787;44.594;11.046;2023-04-25T10:55:15;100357.16;;;16.56;57.67
42125;BME280;27787;44.594;11.046;2023-04-25T10:58:00;100351.63;;;16.64;57.43
42125;BME280;27787;44.594;11.046;2023-04-25T11:00:44;100340.59;;;16.80;58.97
42125;BME280;27787;44.594;11.046;2023-04-25T11:03:29;100346.28;;;17.01;59.54
42125;BME280;27787;44.594;11.046;2023-04-25T11:09:30;100341.59;;;17.10;58.76
42125;BME280;27787;44.594;11.046;2023-04-25T11:12:14;100336.19;;;17.14;58.53
42125;BME280;27787;44.594;11.046;2023-04-25T11:15:00;100341.25;;;17.24;58.97
42125;BME280;27787;44.594;11.046;2023-04-25T11:17:45;100343.44;;;17.41;59.28
42125;BME280;27787;44.594;11.046;2023-04-25T11:20:30;100345.91;;;17.49;58.28
42125;BME280;27787;44.594;11.046;2023-04-25T11:23:15;100347.53;;;17.54;57.29
42125;BME280;27787;44.594;11.046;2023-04-25T11:25:59;100339.56;;;17.53;57.15
42125;BME280;27787;44.594;11.046;2023-04-25T11:28:45;100334.09;;;17.57;56.79
42125;BME280;27787;44.594;11.046;2023-04-25T11:31:30;100337.56;;;17.61;56.32
42125;BME280;27787;44.594;11.046;2023-04-25T11:34:18;100345.38;;;17.67;55.47
42125;BME280;27787;44.594;11.046;2023-04-25T11:37:02;100345.25;;;17.73;55.09
42125;BME280;27787;44.594;11.046;2023-04-25T11:39:46;100342.44;;;17.78;54.26
42125;BME280;27787;44.594;11.046;2023-04-25T11:42:31;100347.56;;;17.85;54.82
42125;BME280;27787;44.594;11.046;2023-04-25T11:45:15;100336.84;;;17.87;54.45
42125;BME280;27787;44.594;11.046;2023-04-25T11:48:01;100342.09;;;17.90;54.29
42125;BME280;27787;44.594;11.046;2023-04-25T11:50:46;100334.25;;;17.84;54.47
42125;BME280;27787;44.594;11.046;2023-04-25T11:53:30;100337.88;;;17.81;54.75
42125;BME280;27787;44.594;11.046;2023-04-25T11:56:14;100342.34;;;17.81;55.72
42125;BME280;27787;44.594;11.046;2023-04-25T11:58:59;100345.84;;;17.83;56.02
42125;BME280;27787;44.594;11.046;2023-04-25T12:01:49;100332.50;;;17.83;56.50
42125;BME280;27787;44.594;11.046;2023-04-25T12:04:33;100336.09;;;17.82;55.53
42125;BME280;27787;44.594;11.046;2023-04-25T12:07:18;100334.53;;;17.75;54.66
42125;BME280;27787;44.594;11.046;2023-04-25T12:10:10;100334.63;;;17.72;55.07
42125;BME280;27787;44.594;11.046;2023-04-25T12:12:55;100329.19;;;17.75;54.83
42125;BME280;27787;44.594;11.046;2023-04-25T12:15:40;100331.78;;;17.78;54.60
42125;BME280;27787;44.594;11.046;2023-04-25T12:18:24;100321.78;;;17.84;54.59
42125;BME280;27787;44.594;11.046;2023-04-25T12:21:11;100327.78;;;17.92;54.77
42125;BME280;27787;44.594;11.046;2023-04-25T12:23:56;100324.13;;;17.95;54.74
42125;BME280;27787;44.594;11.046;2023-04-25T12:27:06;100321.50;;;17.93;54.83
42125;BME280;27787;44.594;11.046;2023-04-25T12:29:54;100326.94;;;17.90;55.11
42125;BME280;27787;44.594;11.046;2023-04-25T12:32:38;100317.34;;;17.83;55.48
42125;BME280;27787;44.594;11.046;2023-04-25T12:35:23;100314.97;;;17.74;55.64
42125;BME280;27787;44.594;11.046;2023-04-25T12:38:07;100296.59;;;17.62;55.53
42125;BME280;27787;44.594;11.046;2023-04-25T12:40:52;100303.84;;;17.57;56.42
42125;BME280;27787;44.594;11.046;2023-04-25T12:43:36;100300.28;;;17.58;57.37
42125;BME280;27787;44.594;11.046;2023-04-25T12:46:20;100304.66;;;17.60;57.91
42125;BME280;27787;44.594;11.046;2023-04-25T12:49:05;100294.75;;;17.64;57.58
42125;BME280;27787;44.594;11.046;2023-04-25T12:51:51;100293.72;;;17.69;56.63
42125;BME280;27787;44.594;11.046;2023-04-25T12:54:35;100288.91;;;17.82;56.61
42125;BME280;27787;44.594;11.046;2023-04-25T12:57:20;100287.75;;;17.91;56.32
42125;BME280;27787;44.594;11.046;2023-04-25T13:00:04;100281.34;;;17.96;56.56
42125;BME280;27787;44.594;11.046;2023-04-25T13:02:51;100290.31;;;17.94;56.19
42125;BME280;27787;44.594;11.046;2023-04-25T13:05:36;100298.59;;;17.86;55.67
42125;BME280;27787;44.594;11.046;2023-04-25T13:08:21;100295.91;;;17.86;55.80
42125;BME280;27787;44.594;11.046;2023-04-25T13:11:05;100299.38;;;17.90;55.38
42125;BME280;27787;44.594;11.046;2023-04-25T13:13:49;100307.16;;;17.97;55.20
42125;BME280;27787;44.594;11.046;2023-04-25T13:16:33;100297.19;;;18.03;54.52
42125;BME280;27787;44.594;11.046;2023-04-25T13:19:18;100313.16;;;18.04;54.51
42125;BME280;27787;44.594;11.046;2023-04-25T13:22:02;100306.03;;;18.05;54.29
42125;BME280;27787;44.594;11.046;2023-04-25T13:24:48;100307.69;;;18.09;54.10
42125;BME280;27787;44.594;11.046;2023-04-25T13:27:32;100304.56;;;18.22;53.96
42125;BME280;27787;44.594;11.046;2023-04-25T13:30:17;100312.22;;;18.35;54.21
42125;BME280;27787;44.594;11.046;2023-04-25T13:33:02;100314.66;;;18.42;55.41
42125;BME280;27787;44.594;11.046;2023-04-25T13:35:48;100320.88;;;18.43;55.89
42125;BME280;27787;44.594;11.046;2023-04-25T13:38:40;100311.34;;;18.34;53.95
42125;BME280;27787;44.594;11.046;2023-04-25T13:41:27;100308.97;;;18.25;55.55
42125;BME280;27787;44.594;11.046;2023-04-25T13:44:11;100309.09;;;18.20;57.41
42125;BME280;27787;44.594;11.046;2023-04-25T13:46:55;100312.81;;;18.16;58.17
42125;BME280;27787;44.594;11.046;2023-04-25T13:49:40;100314.69;;;18.13;58.42
42125;BME280;27787;44.594;11.046;2023-04-25T13:52:25;100315.69;;;18.09;58.43
42125;BME280;27787;44.594;11.046;2023-04-25T13:55:09;100313.06;;;18.07;59.13
42125;BME280;27787;44.594;11.046;2023-04-25T13:57:54;100318.63;;;18.01;59.54
42125;BME280;27787;44.594;11.046;2023-04-25T14:00:40;100322.44;;;17.92;61.03
42125;BME280;27787;44.594;11.046;2023-04-25T14:03:27;100319.25;;;17.80;62.71
42125;BME280;27787;44.594;11.046;2023-04-25T14:06:11;100327.50;;;17.72;63.70
42125;BME280;27787;44.594;11.046;2023-04-25T14:08:56;100333.75;;;17.71;64.04
42125;BME280;27787;44.594;11.046;2023-04-25T14:11:41;100319.53;;;17.69;64.18
42125;BME280;27787;44.594;11.046;2023-04-25T14:14:25;100323.97;;;17.70;63.84
42125;BME280;27787;44.594;11.046;2023-04-25T14:17:11;100323.97;;;17.70;64.02
42125;BME280;27787;44.594;11.046;2023-04-25T14:19:56;100324.88;;;17.69;63.83
42125;BME280;27787;44.594;11.046;2023-04-25T14:22:40;100329.88;;;17.81;63.35
42125;BME280;27787;44.594;11.046;2023-04-25T14:25:27;100334.13;;;18.18;61.80
42125;BME280;27787;44.594;11.046;2023-04-25T14:28:12;100341.91;;;18.53;59.73
42125;BME280;27787;44.594;11.046;2023-04-25T14:30:56;100330.50;;;18.76;58.61
42125;BME280;27787;44.594;11.046;2023-04-25T14:33:40;100330.13;;;18.87;58.04